Eddy, Minnesota
Current Conditions -  °F | °C
As of 6:35 AM on Thursday 29 Jan 2015 (Local Time) from KFSE Reporting Station
Light Snow Light Snow  
Wind Chill: -5°   Ceiling: 1200
Heat Index: 12°   Visibility: 7mi
Dew Point: 10°   Wind: 17mph
Humidity: 92%   Direction: 310°NW
Pressure: 30.24"   Gusts: 22mph
Location:  47.7926°N, 95.3062°W
Report Text: KFSE 291235Z AUTO 31015G19KT 7SM -SN OVC012 M11/M12 A3024 RMK AO2
Loading
Personal Weather Stations






























Interactive Weather Map New forecast layout! Learn more

10-Day Weather Forecast

Advertisements
Track Severe Weather on mobile